Time;durP1;ratioP1;P1;durP2;ratioP2;P2;SDS_P1;SDS_P2;PMS_P1;PMS_P2;Temp;Humidity;BMP_temperature;BMP_pressure;BME280_temperature;BME280_humidity;BME280_pressure;Samples;Min_cycle;Max_cycle;Signal;HPM_P1;HPM_P2
2023/04/01 00:07:46;;;;;;;0.52;0.40;;;;;;;17.46;64.46;98818.19;20742552;28;20046;-86
2023/04/01 00:17:48;;;;;;;0.60;0.40;;;;;;;17.44;64.50;98817.53;20742602;28;20049;-87
2023/04/01 00:27:50;;;;;;;0.40;0.40;;;;;;;17.45;64.56;98812.97;20740599;28;20057;-86
2023/04/01 00:37:51;;;;;;;0.70;0.50;;;;;;;17.45;64.42;98808.44;20754898;28;20050;-87
2023/04/01 00:47:54;;;;;;;0.30;0.30;;;;;;;17.44;64.48;98805.94;20755075;28;20057;-86
2023/04/01 00:57:57;;;;;;;0.57;0.32;;;;;;;17.37;64.48;98795.09;20752722;28;20141;-87
2023/04/01 01:08:12;;;;;;;0.40;0.40;;;;;;;17.44;64.48;98805.94;20753366;28;20569;-87
2023/04/01 01:18:29;;;;;;;;;;;;;;;17.44;64.38;98800.53;20759518;28;20049;-86
2023/04/01 01:29:05;;;;;;;0.55;0.40;;;;;;;17.23;64.55;98767.16;20751061;28;19928;-87
2023/04/01 01:39:08;;;;;;;0.52;0.50;;;;;;;17.42;64.32;98792.69;20748529;28;20053;-86
2023/04/01 01:49:11;;;;;;;0.40;0.35;;;;;;;17.40;64.39;98794.72;20750930;28;20049;-86
2023/04/01 01:59:15;;;;;;;0.50;0.30;;;;;;;17.43;64.30;98805.09;20732110;28;20057;-86
2023/04/01 02:09:17;;;;;;;0.30;0.30;;;;;;;17.42;64.24;98811.50;20761554;28;20461;-86
2023/04/01 02:19:22;;;;;;;0.25;0.25;;;;;;;17.43;64.30;98815.88;20732320;28;20049;-87
2023/04/01 02:29:26;;;;;;;0.40;0.40;;;;;;;17.43;64.45;98829.31;20762135;28;20099;-87
2023/04/01 02:39:27;;;;;;;0.40;0.40;;;;;;;17.29;64.19;98797.88;20746879;28;20518;-87
2023/04/01 02:49:29;;;;;;;0.38;0.38;;;;;;;17.43;64.19;98837.38;20746435;28;20050;-86
2023/04/01 02:59:31;;;;;;;0.70;0.50;;;;;;;17.44;64.15;98838.22;20735154;28;20045;-86
2023/04/01 03:09:33;;;;;;;0.32;0.25;;;;;;;17.43;64.26;98852.69;20736705;28;20103;-86
2023/04/01 03:19:34;;;;;;;0.43;0.30;;;;;;;17.43;64.16;98852.69;20743388;28;20061;-87
2023/04/01 03:29:40;;;;;;;0.80;0.50;;;;;;;17.39;64.07;98846.84;20757773;28;20439;-86
2023/04/01 03:39:43;;;;;;;0.30;0.30;;;;;;;17.39;64.08;98857.59;20732510;28;20033;-87
2023/04/01 03:49:45;;;;;;;0.20;0.20;;;;;;;17.42;64.00;98870.69;20725333;28;20117;-86
2023/04/01 03:59:47;;;;;;;0.35;0.35;;;;;;;17.42;64.18;98878.75;20740323;28;20108;-87
2023/04/01 04:09:49;;;;;;;0.28;0.28;;;;;;;17.43;64.05;98884.94;20739398;28;20117;-86
2023/04/01 04:19:51;;;;;;;0.68;0.30;;;;;;;17.43;64.17;98896.56;20740889;28;20088;-87
2023/04/01 04:29:53;;;;;;;0.30;0.28;;;;;;;17.27;63.97;98878.72;20739458;28;20052;-87
2023/04/01 04:39:55;;;;;;;0.30;0.30;;;;;;;17.42;64.09;98913.72;20740303;28;20483;-87
2023/04/01 04:49:57;;;;;;;0.98;0.38;;;;;;;17.42;64.00;98929.88;20737394;28;20042;-87
2023/04/01 04:59:59;;;;;;;0.25;0.25;;;;;;;17.34;63.99;98921.88;20736320;28;20129;-86
2023/04/01 05:10:21;;;;;;;0.20;0.20;;;;;;;17.39;64.02;98954.44;20736117;28;20046;-86
2023/04/01 05:20:23;;;;;;;0.20;0.20;;;;;;;17.16;64.13;98939.13;20765371;28;20046;-84
2023/04/01 05:30:25;;;;;;;0.38;0.22;;;;;;;17.42;64.17;98977.44;20771294;28;20081;-84
2023/04/01 05:40:33;;;;;;;1.45;0.40;;;;;;;17.38;64.56;98974.28;20754629;28;20037;-86
2023/04/01 05:50:35;;;;;;;0.40;0.30;;;;;;;17.43;64.92;98995.25;20754071;28;20534;-80
2023/04/01 06:00:38;;;;;;;0.30;0.30;;;;;;;17.40;65.63;98974.94;20753591;28;20046;-85
2023/04/01 06:11:03;;;;;;;1.02;0.40;;;;;;;17.65;64.93;99021.31;20736748;28;20045;-85
2023/04/01 06:21:14;;;;;;;0.50;0.50;;;;;;;17.67;64.58;99043.50;20751687;28;20046;-85
2023/04/01 06:31:35;;;;;;;1.33;0.50;;;;;;;17.69;64.38;99046.03;20724151;28;20085;-85
2023/04/01 06:41:53;;;;;;;3.03;0.65;;;;;;;17.70;63.94;99061.16;20749507;28;20046;-85
2023/04/01 06:52:18;;;;;;;0.82;0.50;;;;;;;17.71;63.86;99065.50;20744312;28;21095;-85
2023/04/01 07:02:47;;;;;;;0.60;0.50;;;;;;;17.73;63.64;99084.16;20740962;28;20046;-85
2023/04/01 07:12:53;;;;;;;0.40;0.40;;;;;;;17.74;63.69;99100.13;20745011;28;20169;-85
2023/04/01 07:23:02;;;;;;;0.68;0.40;;;;;;;17.75;63.56;99114.41;20733165;28;20060;-85
2023/04/01 07:33:22;;;;;;;0.28;0.28;;;;;;;17.76;63.14;99127.72;20754916;28;20045;-84
2023/04/01 07:44:00;;;;;;;0.82;0.45;;;;;;;17.76;63.50;99143.84;20716895;28;20085;-85
2023/04/01 07:54:09;;;;;;;0.63;0.43;;;;;;;17.77;63.30;99164.38;20720317;28;20038;-84
2023/04/01 08:04:15;;;;;;;0.40;0.40;;;;;;;17.76;63.40;99173.47;20729661;28;20052;-85
2023/04/01 08:14:35;;;;;;;0.40;0.38;;;;;;;17.77;63.24;99187.75;20719334;28;20091;-84
2023/04/01 08:24:49;;;;;;;0.30;0.30;;;;;;;17.78;63.16;99208.25;20721864;28;20459;-85
2023/04/01 08:35:24;;;;;;;0.38;0.32;;;;;;;17.78;63.20;99222.56;20721976;28;20038;-85
2023/04/01 08:45:30;;;;;;;0.32;0.30;;;;;;;17.80;63.06;99241.22;20715503;28;20046;-85
2023/04/01 08:55:53;;;;;;;0.30;0.30;;;;;;;17.80;62.98;99252.00;20738416;28;20046;-85
2023/04/01 09:06:22;;;;;;;0.30;0.30;;;;;;;17.80;63.26;99263.63;20718864;28;20076;-84
2023/04/01 09:16:28;;;;;;;1.23;0.52;;;;;;;17.83;63.70;99279.41;20732677;28;20565;-82
2023/04/01 09:26:39;;;;;;;0.52;0.50;;;;;;;17.88;63.80;99291.50;20749703;28;20076;-81
2023/04/01 09:37:07;;;;;;;0.68;0.40;;;;;;;17.87;63.69;99306.81;20745494;28;20545;-81
2023/04/01 09:47:30;;;;;;;0.82;0.50;;;;;;;17.86;63.84;99323.16;20741483;28;20065;-81
2023/04/01 09:57:31;;;;;;;0.38;0.38;;;;;;;17.86;63.60;99336.59;20754767;28;20041;-81
2023/04/01 10:08:17;;;;;;;0.50;0.50;;;;;;;17.76;63.66;99331.41;20752180;28;20058;-81
2023/04/01 10:18:37;;;;;;;0.40;0.40;;;;;;;17.85;63.68;99359.16;20752462;28;20084;-81
2023/04/01 10:28:59;;;;;;;0.63;0.63;;;;;;;17.85;63.58;99372.63;20766870;28;20064;-81
2023/04/01 10:39:42;;;;;;;0.52;0.52;;;;;;;17.86;63.54;99382.38;20751480;28;20536;-81
2023/04/01 10:50:03;;;;;;;0.60;0.60;;;;;;;17.86;63.36;99395.81;20749734;28;20077;-81
2023/04/01 11:00:26;;;;;;;0.63;0.63;;;;;;;17.83;63.44;99402.38;20736355;28;20042;-81
2023/04/01 11:11:00;;;;;;;0.80;0.80;;;;;;;17.85;63.41;99423.75;20723162;28;20046;-81
2023/04/01 11:21:28;;;;;;;0.93;0.80;;;;;;;17.83;63.13;99446.31;20722845;28;20056;-81
2023/04/01 11:31:42;;;;;;;0.95;0.70;;;;;;;17.83;63.13;99462.47;20739259;28;20041;-81
2023/04/01 11:42:06;;;;;;;0.50;0.50;;;;;;;17.83;63.07;99485.84;20733130;28;20133;-81
2023/04/01 11:52:48;;;;;;;0.90;0.60;;;;;;;17.83;62.84;99494.78;20720626;28;20045;-88
2023/04/01 12:03:11;;;;;;;0.60;0.60;;;;;;;17.83;62.80;99523.53;20743367;28;20530;-87
2023/04/01 12:13:16;;;;;;;0.73;0.57;;;;;;;17.82;62.81;99544.22;20745640;28;20042;-87
2023/04/01 12:23:29;;;;;;;0.70;0.70;;;;;;;17.82;62.77;99562.22;20741392;28;20049;-88
2023/04/01 12:33:40;;;;;;;0.60;0.60;;;;;;;17.82;62.65;99575.69;20744016;28;20046;-90
2023/04/01 12:43:44;;;;;;;0.60;0.60;;;;;;;17.83;62.38;99596.22;20743975;28;20494;-90
2023/04/01 12:54:04;;;;;;;0.50;0.50;;;;;;;17.82;62.62;99613.38;20745648;28;20050;-90
2023/04/01 13:04:27;;;;;;;0.50;0.50;;;;;;;17.82;62.41;99637.59;20743502;28;20057;-90
2023/04/01 13:14:32;;;;;;;0.40;0.40;;;;;;;17.82;62.34;99651.06;20743404;28;20049;-90
2023/04/01 13:24:39;;;;;;;0.50;0.40;;;;;;;17.81;62.26;99682.53;20742527;28;20113;-90
2023/04/01 13:34:54;;;;;;;0.40;0.40;;;;;;;17.81;62.05;99687.06;20743253;28;20128;-90
2023/04/01 13:45:14;;;;;;;0.32;0.32;;;;;;;17.80;61.78;99705.09;20754317;28;20054;-89
2023/04/01 13:55:34;;;;;;;0.70;0.50;;;;;;;17.79;61.53;99724.94;20749092;28;20073;-90
2023/04/01 14:05:53;;;;;;;0.40;0.40;;;;;;;17.80;61.43;99742.78;20754913;28;20038;-89
2023/04/01 14:16:20;;;;;;;0.40;0.40;;;;;;;17.79;61.40;99762.63;20754591;28;20096;-89
2023/04/01 14:26:46;;;;;;;0.40;0.40;;;;;;;17.80;61.36;99780.47;20752348;28;20058;-89
2023/04/01 14:37:17;;;;;;;0.30;0.30;;;;;;;17.80;61.43;99812.78;20753305;28;20455;-90
2023/04/01 14:47:30;;;;;;;0.63;0.50;;;;;;;17.79;61.24;99827.22;20751614;28;20113;-90
2023/04/01 14:57:34;;;;;;;0.40;0.40;;;;;;;17.80;61.00;99847.78;20751440;28;20386;-89
2023/04/01 15:08:15;;;;;;;0.20;0.20;;;;;;;17.80;61.01;99863.06;20745740;28;20042;-87
2023/04/01 15:18:45;;;;;;;0.30;0.30;;;;;;;17.79;60.74;99888.28;20727804;28;20101;-87
2023/04/01 15:28:55;;;;;;;0.30;0.30;;;;;;;17.79;60.74;99899.94;20729651;28;20634;-81
2023/04/01 15:39:15;;;;;;;0.50;0.50;;;;;;;17.74;60.72;99931.88;20713538;28;20395;-82
2023/04/01 15:49:46;;;;;;;1.15;0.32;;;;;;;17.66;60.66;99958.69;20716902;28;20049;-87
2023/04/01 15:59:54;;;;;;;0.30;0.30;;;;;;;17.61;60.88;99977.19;20719080;28;20128;-83
2023/04/01 16:10:10;;;;;;;0.73;0.35;;;;;;;17.56;60.73;99996.50;20717284;28;20137;-82
2023/04/01 16:20:18;;;;;;;;;;;;;;;17.58;60.62;100017.88;20725501;28;20508;-81
2023/04/01 16:30:55;;;;;;;0.63;0.30;;;;;;;17.52;60.38;100051.66;20726735;28;19936;-83
2023/04/01 16:41:02;;;;;;;0.30;0.30;;;;;;;17.52;60.22;100062.41;20695157;28;20054;-83
2023/04/01 16:51:13;;;;;;;0.45;0.30;;;;;;;17.46;59.96;100080.00;20704518;28;20133;-83
2023/04/01 17:01:22;;;;;;;0.30;0.30;;;;;;;17.47;60.09;100113.16;20661122;28;20718;-83
2023/04/01 17:11:37;;;;;;;0.60;0.40;;;;;;;17.46;60.02;100131.13;20707111;28;20049;-83
2023/04/01 17:21:42;;;;;;;0.40;0.40;;;;;;;17.48;59.96;100157.91;20704673;28;20050;-83
2023/04/01 17:32:03;;;;;;;0.60;0.60;;;;;;;17.43;59.85;100177.19;20755256;28;20120;-81
2023/04/01 17:42:09;;;;;;;0.80;0.40;;;;;;;17.46;60.05;100205.66;20750897;28;20045;-81
2023/04/01 17:52:23;;;;;;;0.68;0.35;;;;;;;17.45;59.88;100238.91;20726644;28;20053;-82
2023/04/01 18:02:35;;;;;;;0.63;0.63;;;;;;;17.44;59.81;100264.97;20727981;28;20056;-83
2023/04/01 18:13:08;;;;;;;1.48;0.63;;;;;;;17.43;59.67;100287.50;20739209;28;20077;-89
2023/04/01 18:23:20;;;;;;;0.52;0.50;;;;;;;17.42;59.45;100320.78;20732306;28;20065;-86
2023/04/01 18:33:29;;;;;;;0.70;0.60;;;;;;;17.42;59.45;100353.06;20727845;28;20052;-85
2023/04/01 18:43:56;;;;;;;1.20;0.75;;;;;;;17.40;59.42;100373.91;20711422;28;20092;-84
2023/04/01 18:54:25;;;;;;;1.00;0.68;;;;;;;17.40;59.15;100398.13;20719976;28;20083;-83
2023/04/01 19:04:36;;;;;;;0.77;0.70;;;;;;;17.29;59.20;100406.38;20715662;28;20064;-82
2023/04/01 19:15:03;;;;;;;0.82;0.80;;;;;;;17.39;59.01;100456.47;20730154;28;20042;-82
2023/04/01 19:25:42;;;;;;;1.02;0.77;;;;;;;17.38;58.71;100483.53;20732853;28;20050;-86
2023/04/01 19:36:01;;;;;;;0.80;0.75;;;;;;;17.28;58.58;100485.38;20726467;28;20084;-85
2023/04/01 19:46:10;;;;;;;0.70;0.70;;;;;;;17.21;58.60;100482.41;20720872;28;20057;-86
2023/04/01 19:56:54;;;;;;;1.25;1.10;;;;;;;17.37;58.31;100538.34;20719137;28;20049;-90
2023/04/01 20:07:02;;;;;;;1.00;0.90;;;;;;;17.36;58.11;100563.53;20686851;28;20100;-92
2023/04/01 20:17:37;;;;;;;2.17;1.00;;;;;;;17.36;57.98;100595.81;20735584;28;20044;-85
2023/04/01 20:27:46;;;;;;;1.10;1.00;;;;;;;17.36;57.79;100606.59;20723514;28;20049;-81
2023/04/01 20:38:15;;;;;;;1.33;1.05;;;;;;;17.35;57.69;100637.19;20743340;28;20061;-81
2023/04/01 20:48:22;;;;;;;1.10;1.00;;;;;;;17.34;57.43;100657.00;20748587;28;20116;-81
2023/04/01 20:58:35;;;;;;;1.77;1.23;;;;;;;17.33;57.39;100677.66;20737475;28;20073;-81
2023/04/01 21:09:03;;;;;;;1.30;1.20;;;;;;;17.28;57.12;100682.63;20742293;28;20494;-81
2023/04/01 21:19:49;;;;;;;2.10;1.15;;;;;;;17.32;57.03;100721.72;20772544;28;20050;-81
2023/04/01 21:30:07;;;;;;;1.25;1.10;;;;;;;16.94;56.74;100673.00;20707630;28;20136;-81
2023/04/01 21:40:45;;;;;;;2.67;1.40;;;;;;;17.30;56.55;100757.81;20741935;28;20034;-81
2023/04/01 21:51:18;;;;;;;1.52;1.10;;;;;;;17.31;56.54;100781.88;20766115;28;20133;-81
2023/04/01 22:01:45;;;;;;;1.95;1.25;;;;;;;17.30;56.29;100811.63;20751419;28;20053;-81
2023/04/01 22:11:54;;;;;;;1.70;1.08;;;;;;;17.17;56.02;100796.56;20749975;28;20509;-81
2023/04/01 22:22:02;;;;;;;2.10;1.25;;;;;;;17.30;55.94;100843.94;20748576;28;20049;-81
2023/04/01 22:32:24;;;;;;;1.95;1.30;;;;;;;17.28;55.63;100859.34;20746471;28;20104;-81
2023/04/01 22:42:42;;;;;;;2.03;1.50;;;;;;;17.27;55.54;100877.31;20748584;28;20045;-81
2023/04/01 22:52:50;;;;;;;1.98;1.20;;;;;;;17.28;55.29;100894.34;20736140;28;20044;-81
2023/04/01 23:03:19;;;;;;;1.85;1.20;;;;;;;17.27;55.15;100915.00;20746694;28;20465;-81
2023/04/01 23:13:37;;;;;;;2.38;1.25;;;;;;;17.17;54.95;100908.69;20741846;28;20471;-81
2023/04/01 23:23:48;;;;;;;1.90;1.20;;;;;;;17.26;54.75;100953.66;20744111;28;20521;-81
2023/04/01 23:33:54;;;;;;;1.25;1.00;;;;;;;17.27;54.58;100967.97;20740101;28;20047;-81
2023/04/01 23:44:00;;;;;;;2.40;1.60;;;;;;;17.27;54.26;100992.19;20709252;28;20050;-81
2023/04/01 23:54:15;;;;;;;1.35;1.10;;;;;;;17.26;54.20;101012.84;20744865;28;20042;-81
